This is the latest recevied weather packets stored in our database for station/object OK1FET-16. If no packets are shown the sender has not sent any weather packets the latest 10 day(s).
| Time | Temp. | Humidity | Pressure | Rain* | Wind** | Luminosity | Snow |
|---|---|---|---|---|---|---|---|
| 1787998310 | 28.33° C | 51% | 1071.5 hPa | - | - | - | - |
| 1787998038 | 28.33° C | 52% | 1071.5 hPa | - | - | - | - |
| 1787997223 | 29.44° C | 52% | 1071.7 hPa | - | - | - | - |
| 1787996951 | 30.56° C | 51% | 1071.7 hPa | - | - | - | - |
| 1787996680 | 30° C | 51% | 1071.6 hPa | - | - | - | - |
| 1787996408 | 30.56° C | 52% | 1071.7 hPa | - | - | - | - |
| 1787996136 | 31.67° C | 53% | 1071.6 hPa | - | - | - | - |
| 1787995864 | 31.67° C | 54% | 1071.7 hPa | - | - | - | - |
| 1787995592 | 32.78° C | 53% | 1071.8 hPa | - | - | - | - |
| 1787995320 | 33.89° C | 53% | 1071.8 hPa | - | - | - | - |
| 1787995047 | 33.89° C | 55% | 1071.8 hPa | - | - | - | - |
| 1787994775 | 36.67° C | 49% | 1071.7 hPa | - | - | - | - |
| 1787994230 | 36.11° C | 50% | 1071.7 hPa | - | - | - | - |
| 1787993957 | 35° C | 52% | 1071.9 hPa | - | - | - | - |
| 1787993685 | 34.44° C | 55% | 1071.8 hPa | - | - | - | - |
| 1787993413 | 34.44° C | 53% | 1071.9 hPa | - | - | - | - |
| 1787993140 | 35.56° C | 52% | 1071.8 hPa | - | - | - | - |
| 1787992867 | 35° C | 53% | 1071.8 hPa | - | - | - | - |
| 1787992595 | 34.44° C | 54% | 1071.8 hPa | - | - | - | - |
| 1787992322 | 36.11° C | 53% | 1071.8 hPa | - | - | - | - |
| 1787992050 | 35° C | 55% | 1071.7 hPa | - | - | - | - |
| 1787991778 | 34.44° C | 55% | 1071.7 hPa | - | - | - | - |
| 1787991505 | 33.33° C | 56% | 1071.6 hPa | - | - | - | - |
| 1787990961 | 33.33° C | 58% | 1071.7 hPa | - | - | - | - |
| 1787990688 | 32.78° C | 59% | 1071.8 hPa | - | - | - | - |
* Rain since midnight (hover to see other rain measurements)
** Current wind speed in m/s (hover to see current wind gust speed)